Time;durP1;ratioP1;P1;durP2;ratioP2;P2;SDS_P1;SDS_P2;PMS_P1;PMS_P2;Temp;Humidity;BMP_temperature;BMP_pressure;BME280_temperature;BME280_humidity;BME280_pressure;Samples;Min_cycle;Max_cycle;Signal;HPM_P1;HPM_P2
2021/11/20 00:02:45;;;;;;;12.47;9.73;;;;;;;7.59;74.80;98645.50;6217110;28;20230;-66
2021/11/20 00:05:51;;;;;;;12.60;9.90;;;;;;;7.59;75.36;98639.41;6218641;28;20202;-66
2021/11/20 00:08:54;;;;;;;12.60;9.90;;;;;;;7.58;75.27;98650.88;6220020;28;20197;-65
2021/11/20 00:12:06;;;;;;;13.53;10.97;;;;;;;7.59;74.95;98652.53;6223575;28;20332;-66
2021/11/20 00:15:12;;;;;;;14.27;11.50;;;;;;;7.55;75.03;98638.72;6216045;28;20275;-66
2021/11/20 00:18:16;;;;;;;13.90;10.03;;;;;;;7.56;74.86;98653.56;6222673;28;20220;-67
2021/11/20 00:21:25;;;;;;;17.60;12.20;;;;;;;7.55;74.46;98644.00;6223363;28;20266;-65
2021/11/20 00:24:32;;;;;;;14.77;12.10;;;;;;;7.56;74.86;98647.47;6223461;28;20221;-65
2021/11/20 00:27:37;;;;;;;15.13;11.43;;;;;;;7.53;74.54;98643.22;6222899;28;20227;-68
2021/11/20 00:30:53;;;;;;;17.50;12.20;;;;;;;7.55;74.52;98638.72;6221927;28;20256;-66
2021/11/20 00:33:57;;;;;;;16.27;13.07;;;;;;;7.55;75.20;98638.72;6221939;28;20700;-65
2021/11/20 00:37:00;;;;;;;14.60;11.33;;;;;;;7.54;75.37;98644.06;6222908;28;20263;-66
2021/11/20 00:40:09;;;;;;;16.73;11.70;;;;;;;7.54;74.95;98644.91;6221649;28;20198;-66
2021/11/20 00:43:13;;;;;;;15.37;12.00;;;;;;;7.53;75.08;98645.00;6222698;28;20615;-65
2021/11/20 00:46:18;;;;;;;14.47;10.73;;;;;;;7.54;75.50;98644.91;6207681;28;20763;-66
2021/11/20 00:49:22;;;;;;;12.97;11.00;;;;;;;7.54;75.31;98647.53;6221320;28;20201;-65
2021/11/20 00:52:25;;;;;;;16.97;11.97;;;;;;;7.57;75.42;98659.69;6222130;28;20194;-66
2021/11/20 00:55:29;;;;;;;17.90;10.93;;;;;;;7.58;74.75;98658.75;6221610;28;20203;-66
2021/11/20 00:58:32;;;;;;;15.63;10.13;;;;;;;7.59;74.88;98658.63;6220880;28;20711;-67
2021/11/20 01:01:39;;;;;;;18.77;10.77;;;;;;;7.60;74.89;98655.09;6220895;28;20569;-65
2021/11/20 01:04:42;;;;;;;11.57;9.20;;;;;;;7.61;74.69;98653.31;6220994;28;20207;-66
2021/11/20 01:07:44;;;;;;;13.27;9.57;;;;;;;7.63;75.25;98649.69;6221280;28;20715;-65
2021/11/20 01:10:51;;;;;;;13.03;10.43;;;;;;;7.63;74.74;98644.44;6204861;28;20271;-68
2021/11/20 01:13:56;;;;;;;13.90;10.07;;;;;;;7.62;74.67;98650.59;6220723;28;20203;-66
2021/11/20 01:16:59;;;;;;;14.30;10.23;;;;;;;7.60;75.15;98639.31;6200146;28;20683;-65
2021/11/20 01:20:05;;;;;;;15.10;10.33;;;;;;;7.55;75.88;98645.75;6219602;28;20581;-66
2021/11/20 01:23:32;;;;;;;14.03;10.00;;;;;;;7.51;76.15;98639.81;6213606;28;20237;-65
2021/11/20 01:26:41;;;;;;;13.33;10.10;;;;;;;7.46;77.44;98627.88;6222273;28;20666;-66
2021/11/20 01:29:43;;;;;;;13.83;9.53;;;;;;;7.39;77.29;98637.81;6220464;28;20587;-66
2021/11/20 01:32:48;;;;;;;14.50;10.70;;;;;;;7.31;79.17;98638.22;6221905;28;20243;-66
2021/11/20 01:35:50;;;;;;;15.93;11.27;;;;;;;7.27;78.76;98643.72;6221422;28;20531;-65
2021/11/20 01:38:55;;;;;;;15.77;11.63;;;;;;;7.21;79.14;98633.53;6220444;28;20255;-66
2021/11/20 01:42:22;;;;;;;13.63;10.53;;;;;;;7.20;79.04;98622.19;6219735;28;20547;-66
2021/11/20 01:45:37;;;;;;;14.90;10.60;;;;;;;7.18;79.32;98618.81;6216068;28;20243;-65
2021/11/20 01:48:54;;;;;;;14.83;11.70;;;;;;;7.14;79.79;98624.28;6220315;28;20205;-65
2021/11/20 01:52:07;;;;;;;19.03;12.47;;;;;;;7.13;79.83;98617.31;6219698;28;20202;-65
2021/11/20 01:55:12;;;;;;;23.23;12.67;;;;;;;7.10;79.88;98610.44;6220301;28;20564;-65
2021/11/20 01:58:38;;;;;;;16.27;12.30;;;;;;;7.08;80.15;98607.09;6219350;28;20217;-66
2021/11/20 02:02:29;;;;;;;16.30;11.77;;;;;;;7.06;79.98;98603.69;6219704;28;20208;-65
2021/11/20 02:06:01;;;;;;;16.10;10.80;;;;;;;7.03;80.36;98603.81;6196364;28;20219;-65
2021/11/20 02:09:55;;;;;;;14.90;11.00;;;;;;;7.01;80.79;98597.81;6206853;28;20208;-65
2021/11/20 02:13:11;;;;;;;14.57;10.33;;;;;;;6.99;80.53;98594.41;6218965;28;20723;-66
2021/11/20 02:16:18;;;;;;;14.33;10.47;;;;;;;6.98;80.80;98595.34;6207839;28;20571;-66
2021/11/20 02:19:31;;;;;;;17.43;11.57;;;;;;;6.94;81.29;98596.44;6219100;28;20230;-65
2021/11/20 02:22:36;;;;;;;15.17;11.00;;;;;;;6.91;81.46;98600.06;6219194;28;20203;-65
2021/11/20 02:25:41;;;;;;;14.00;10.73;;;;;;;6.88;81.59;98589.72;6219631;28;20276;-67
2021/11/20 02:29:07;;;;;;;14.77;10.03;;;;;;;6.88;81.84;98588.88;6205867;28;20203;-66
2021/11/20 02:32:29;;;;;;;17.50;10.93;;;;;;;6.89;81.84;98599.28;6208849;28;20680;-66
2021/11/20 02:36:02;;;;;;;15.03;11.07;;;;;;;6.89;81.84;98585.31;6218792;28;20262;-65
2021/11/20 02:39:18;;;;;;;15.00;10.67;;;;;;;6.90;82.11;98597.50;6219089;28;20217;-66
2021/11/20 02:42:24;;;;;;;15.57;10.97;;;;;;;6.89;82.29;98594.03;6218386;28;20209;-65
2021/11/20 02:45:49;;;;;;;16.57;11.40;;;;;;;6.86;82.38;98598.59;6208983;28;20239;-65
2021/11/20 02:48:52;;;;;;;16.90;11.93;;;;;;;6.85;82.29;98596.91;6210980;28;20231;-65
2021/11/20 02:52:06;;;;;;;16.97;11.67;;;;;;;6.84;82.64;98580.31;6218544;28;20199;-66
2021/11/20 02:55:09;;;;;;;19.33;12.03;;;;;;;6.83;82.60;98570.72;6219025;28;20192;-67
2021/11/20 02:58:14;;;;;;;16.00;11.83;;;;;;;6.83;82.72;98572.50;6219602;28;20305;-65
2021/11/20 03:01:26;;;;;;;17.77;12.07;;;;;;;6.84;82.59;98566.34;6218087;28;20200;-65
2021/11/20 03:04:29;;;;;;;17.07;12.43;;;;;;;6.78;82.48;98572.75;6218496;28;20194;-65
2021/11/20 03:07:32;;;;;;;17.10;11.97;;;;;;;6.80;82.42;98570.88;6218592;28;20202;-66
2021/11/20 03:10:35;;;;;;;15.30;10.93;;;;;;;6.77;82.62;98565.81;6218012;28;20200;-65
2021/11/20 03:13:37;;;;;;;18.13;12.27;;;;;;;6.77;82.78;98555.31;6218164;28;20358;-66
2021/11/20 03:16:47;;;;;;;16.60;11.47;;;;;;;6.75;82.98;98549.28;6199410;28;20212;-65
2021/11/20 03:19:51;;;;;;;17.20;12.00;;;;;;;6.73;83.05;98545.03;6210406;28;20213;-64
2021/11/20 03:22:58;;;;;;;17.67;11.97;;;;;;;6.73;82.93;98550.28;6217894;28;20203;-65
2021/11/20 03:26:01;;;;;;;15.50;10.77;;;;;;;6.71;82.63;98550.38;6219080;28;20195;-65
2021/11/20 03:29:03;;;;;;;15.67;11.93;;;;;;;6.71;82.90;98542.50;6219564;28;20243;-66
2021/11/20 03:32:06;;;;;;;14.67;11.43;;;;;;;6.71;82.81;98539.03;6217643;28;20560;-65
2021/11/20 03:35:09;;;;;;;17.43;11.83;;;;;;;6.66;83.11;98537.50;6217707;28;20201;-65
2021/11/20 03:38:12;;;;;;;17.03;12.20;;;;;;;6.66;82.69;98539.28;6219476;28;20700;-65
2021/11/20 03:41:15;;;;;;;19.27;12.50;;;;;;;6.68;82.94;98541.81;6216890;28;20209;-66
2021/11/20 03:44:18;;;;;;;19.80;12.47;;;;;;;6.62;83.32;98546.44;6218409;28;20260;-66
2021/11/20 03:47:21;;;;;;;18.07;12.17;;;;;;;6.59;83.35;98543.97;6225762;28;20237;-67
2021/11/20 03:50:25;;;;;;;15.07;10.93;;;;;;;6.60;83.24;98547.44;6193208;28;20823;-66
2021/11/20 03:53:27;;;;;;;14.87;11.27;;;;;;;6.56;83.09;98546.75;6193165;28;20229;-67
2021/11/20 03:56:32;;;;;;;13.93;10.83;;;;;;;6.55;83.01;98537.19;6193181;28;20201;-66
2021/11/20 03:59:34;;;;;;;13.10;10.63;;;;;;;6.53;83.55;98541.66;6193485;28;20222;-65
2021/11/20 04:02:38;;;;;;;12.80;10.00;;;;;;;6.51;83.49;98542.66;6203627;28;20293;-67
2021/11/20 04:05:41;;;;;;;11.83;10.17;;;;;;;6.46;83.39;98540.28;6219040;28;20202;-66
2021/11/20 04:08:46;;;;;;;12.67;9.93;;;;;;;6.45;83.56;98549.06;6219074;28;20216;-65
2021/11/20 04:11:52;;;;;;;13.47;9.17;;;;;;;6.44;84.06;98564.88;6216741;28;20200;-65
2021/11/20 04:14:54;;;;;;;11.57;8.83;;;;;;;6.42;83.88;98556.22;6213240;28;20971;-65
2021/11/20 04:17:57;;;;;;;10.10;8.07;;;;;;;6.40;83.82;98558.91;6207405;28;20208;-65
2021/11/20 04:20:59;;;;;;;9.57;7.70;;;;;;;6.42;84.02;98561.47;6216910;28;20203;-65
2021/11/20 04:24:05;;;;;;;9.67;7.50;;;;;;;6.43;84.16;98565.78;6217326;28;20339;-65
2021/11/20 04:27:25;;;;;;;9.83;7.70;;;;;;;6.43;83.82;98578.91;6218767;28;20198;-65
2021/11/20 04:30:42;;;;;;;9.80;7.30;;;;;;;6.40;84.31;98586.91;6217187;28;20199;-64
2021/11/20 04:33:44;;;;;;;9.37;7.43;;;;;;;6.37;84.37;98585.31;6218050;28;20202;-66
2021/11/20 04:36:47;;;;;;;6.87;6.07;;;;;;;6.41;84.36;98594.69;6217720;28;20782;-66
2021/11/20 04:39:51;;;;;;;7.97;6.63;;;;;;;6.41;83.98;98594.69;6208816;28;20220;-65
2021/11/20 04:42:53;;;;;;;7.77;5.93;;;;;;;6.41;84.09;98588.59;6205644;28;20207;-67
2021/11/20 04:45:57;;;;;;;7.90;6.03;;;;;;;6.43;84.22;98578.91;6197970;28;20631;-66
2021/11/20 04:49:00;;;;;;;6.33;4.97;;;;;;;6.43;83.93;98576.28;6207359;28;20201;-65
2021/11/20 04:52:03;;;;;;;7.10;5.67;;;;;;;6.41;84.09;98584.22;6216614;28;20204;-67
2021/11/20 04:55:08;;;;;;;5.40;4.90;;;;;;;6.43;84.48;98581.53;6203079;28;20202;-65
2021/11/20 04:58:14;;;;;;;5.97;4.67;;;;;;;6.40;84.59;98587.75;6221586;28;20193;-67
2021/11/20 05:01:19;;;;;;;6.93;5.90;;;;;;;6.34;84.74;98597.69;6221042;28;20653;-65
2021/11/20 05:04:21;;;;;;;9.63;6.20;;;;;;;6.36;84.55;98596.72;6197134;28;20197;-65
2021/11/20 05:07:24;;;;;;;8.93;6.03;;;;;;;6.37;83.77;98585.31;6221211;28;20601;-66
2021/11/20 05:10:27;;;;;;;6.47;5.70;;;;;;;6.37;83.69;98581.84;6222381;28;20205;-66
2021/11/20 05:13:29;;;;;;;5.67;5.00;;;;;;;6.38;83.73;98580.91;6220569;28;20669;-66
2021/11/20 05:16:32;;;;;;;5.70;4.70;;;;;;;6.37;83.63;98584.47;6216953;28;20269;-66
2021/11/20 05:19:37;;;;;;;6.33;5.47;;;;;;;6.33;83.57;98590.75;6220888;28;20706;-66
2021/11/20 05:22:40;;;;;;;8.20;5.07;;;;;;;6.28;83.78;98583.97;6220452;28;20673;-66
2021/11/20 05:25:45;;;;;;;7.57;6.20;;;;;;;6.17;83.95;98570.53;6220449;28;20251;-65
2021/11/20 05:29:20;;;;;;;6.67;5.43;;;;;;;6.06;83.82;98572.81;6221301;28;20214;-70
2021/11/20 05:32:19;;;;;;;7.10;6.10;;;;;;;6.03;84.07;98559.88;6219979;28;20336;-66
2021/11/20 05:35:26;;;;;;;7.23;6.00;;;;;;;6.02;83.92;98570.41;6220489;28;20186;-66
2021/11/20 05:38:30;;;;;;;7.90;6.80;;;;;;;5.97;83.97;98583.75;6220218;28;20304;-66
2021/11/20 05:41:32;;;;;;;8.70;6.63;;;;;;;5.99;83.47;98583.69;6219913;28;20206;-66
2021/11/20 05:44:36;;;;;;;9.63;6.50;;;;;;;5.95;83.25;98596.06;6219705;28;20223;-65
2021/11/20 05:47:41;;;;;;;7.47;6.00;;;;;;;5.86;83.41;98589.47;6210454;28;20221;-66
2021/11/20 05:50:45;;;;;;;6.57;5.63;;;;;;;5.76;83.33;98596.03;6220106;28;20200;-67
2021/11/20 05:53:48;;;;;;;7.07;6.37;;;;;;;5.60;84.30;98589.78;6220888;28;20197;-66
2021/11/20 05:56:53;;;;;;;7.97;5.73;;;;;;;5.59;84.12;98598.56;6220290;28;20209;-66
2021/11/20 06:00:16;;;;;;;8.17;6.57;;;;;;;5.63;84.63;98609.75;6220194;28;20775;-68
2021/11/20 06:03:25;;;;;;;6.13;5.20;;;;;;;5.64;84.26;98608.84;6220318;28;20189;-65
2021/11/20 06:06:34;;;;;;;7.40;5.80;;;;;;;5.62;83.90;98600.19;6219283;28;20197;-67
2021/11/20 06:09:36;;;;;;;6.63;5.63;;;;;;;5.60;84.30;98602.88;6219413;28;20201;-66
2021/11/20 06:12:40;;;;;;;5.50;4.67;;;;;;;5.59;84.25;98600.38;6220599;28;20216;-66
2021/11/20 06:15:44;;;;;;;6.87;5.27;;;;;;;5.51;84.21;98593.69;6209528;28;20209;-67
2021/11/20 06:18:48;;;;;;;5.30;4.80;;;;;;;5.46;84.27;98590.44;6211461;28;20584;-65
2021/11/20 06:21:50;;;;;;;5.37;4.50;;;;;;;5.47;83.72;98592.16;6219294;28;20207;-66
2021/11/20 06:24:53;;;;;;;5.37;4.70;;;;;;;5.60;83.52;98592.41;6218980;28;20204;-66
2021/11/20 06:27:57;;;;;;;4.83;4.10;;;;;;;5.65;83.47;98592.22;6219320;28;20208;-66
2021/11/20 06:30:59;;;;;;;4.00;3.60;;;;;;;5.65;83.53;98600.94;6220028;28;20565;-65
2021/11/20 06:34:05;;;;;;;5.87;3.97;;;;;;;5.66;83.60;98592.16;6202652;28;20201;-72
2021/11/20 06:37:25;;;;;;;6.40;4.43;;;;;;;5.73;82.76;98587.47;6195965;28;20696;-64
2021/11/20 06:40:44;;;;;;;4.93;3.87;;;;;;;5.78;82.93;98594.22;6218269;28;20221;-65
2021/11/20 06:43:48;;;;;;;4.60;3.73;;;;;;;5.80;82.43;98592.34;6219635;28;20189;-66
2021/11/20 06:46:50;;;;;;;4.00;3.60;;;;;;;5.80;82.09;98594.97;6216402;28;20287;-65
2021/11/20 06:49:53;;;;;;;4.90;4.40;;;;;;;5.79;82.08;98582.78;6218359;28;20239;-66
2021/11/20 06:52:56;;;;;;;3.67;3.37;;;;;;;5.87;82.17;98588.53;6218747;28;20560;-65
2021/11/20 06:56:40;;;;;;;4.87;3.47;;;;;;;5.91;81.78;98584.03;6216780;28;20728;-65
2021/11/20 07:04:00;;;;;;;3.47;3.17;;;;;;;5.95;81.39;98584.75;6201375;28;20688;-65
2021/11/20 07:07:09;;;;;;;3.93;3.40;;;;;;;6.01;81.29;98597.53;6218490;28;20284;-65
2021/11/20 07:10:11;;;;;;;3.83;3.20;;;;;;;6.02;81.14;98591.38;6217790;28;20207;-65
2021/11/20 07:13:15;;;;;;;3.27;2.97;;;;;;;6.04;80.85;98581.69;6217734;28;20211;-71
2021/11/20 07:16:19;;;;;;;3.60;3.20;;;;;;;6.08;80.57;98585.88;6207834;28;20690;-65
2021/11/20 07:19:25;;;;;;;3.27;2.73;;;;;;;6.09;80.28;98601.47;6217645;28;20733;-66
2021/11/20 07:22:50;;;;;;;3.40;3.10;;;;;;;6.12;80.77;98600.50;6212940;28;20343;-65
2021/11/20 07:25:52;;;;;;;2.90;2.60;;;;;;;6.14;80.31;98604.75;6217546;28;20201;-65
2021/11/20 07:29:27;;;;;;;3.00;2.70;;;;;;;6.21;79.60;98602.69;7128619;22;20212;31
2021/11/20 07:32:36;;;;;;;3.43;3.00;;;;;;;6.24;79.76;98607.78;6135765;28;20214;-71
2021/11/20 07:35:45;;;;;;;2.70;2.50;;;;;;;6.29;79.38;98606.63;6134288;29;20198;-68
2021/11/20 07:38:52;;;;;;;2.70;2.50;;;;;;;6.29;79.46;98609.25;6146620;29;20214;-68
2021/11/20 07:41:55;;;;;;;2.60;2.40;;;;;;;6.34;79.42;98609.03;6144441;29;20195;-68
2021/11/20 07:49:52;;;;;;;1.77;1.67;;;;;;;6.33;79.52;98598.63;6146447;29;20642;-68
2021/11/20 07:52:54;;;;;;;2.47;2.23;;;;;;;6.38;79.45;98588.78;6144691;28;20213;-68
2021/11/20 07:55:57;;;;;;;2.50;2.20;;;;;;;6.42;79.47;98600.78;6144517;29;20534;-68
2021/11/20 07:58:59;;;;;;;2.67;2.13;;;;;;;6.48;79.05;98608.38;6145243;29;20211;-69
2021/11/20 08:02:02;;;;;;;2.30;2.10;;;;;;;6.48;78.85;98598.75;6160131;28;20565;-68
2021/11/20 08:05:17;;;;;;;3.13;2.10;;;;;;;6.52;78.86;98592.41;6160732;28;20338;-69
2021/11/20 08:08:40;;;;;;;2.30;2.03;;;;;;;6.53;78.51;98601.97;6145738;28;20195;-69
2021/11/20 08:11:53;;;;;;;2.10;1.90;;;;;;;6.58;78.76;98589.50;6160763;28;20191;-69
2021/11/20 08:14:55;;;;;;;2.83;1.90;;;;;;;6.60;78.55;98592.00;6160818;28;20282;-69
2021/11/20 08:18:20;;;;;;;2.00;1.80;;;;;;;6.61;78.42;98591.94;6145697;28;20212;-69
2021/11/20 08:21:46;;;;;;;1.73;1.63;;;;;;;6.76;77.68;98603.47;6135764;28;20621;-69
2021/11/20 08:24:53;;;;;;;3.47;1.97;;;;;;;6.90;77.36;98608.84;6144274;29;20208;-69
2021/11/20 08:27:56;;;;;;;2.27;2.07;;;;;;;7.03;76.66;98593.34;6144609;28;20198;-69
2021/11/20 08:31:04;;;;;;;2.00;1.80;;;;;;;7.20;76.22;98595.91;6132162;28;20238;-69
2021/11/20 08:34:08;;;;;;;1.70;1.30;;;;;;;7.31;75.65;98603.25;6125402;29;20214;-69
2021/11/20 08:37:39;;;;;;;2.37;1.90;;;;;;;7.39;75.55;98609.78;6112747;29;20303;-68
2021/11/20 08:40:50;;;;;;;2.90;1.60;;;;;;;7.64;74.65;98609.34;6124627;29;20313;-68
2021/11/20 08:43:52;;;;;;;1.90;1.50;;;;;;;7.83;74.15;98590.81;6139208;29;20745;-68
2021/11/20 08:47:09;;;;;;;1.87;1.40;;;;;;;7.90;73.63;98586.91;6124719;29;20201;-69
2021/11/20 08:50:20;;;;;;;1.77;1.30;;;;;;;8.08;72.94;98598.19;6126244;29;20246;-68
2021/11/20 08:53:23;;;;;;;1.70;1.47;;;;;;;8.27;73.16;98593.59;6124811;29;20208;-68
2021/11/20 08:56:25;;;;;;;1.20;1.07;;;;;;;8.43;72.08;98597.09;6126263;29;20193;-68
2021/11/20 08:59:41;;;;;;;1.40;1.10;;;;;;;8.58;71.35;98597.16;6126394;29;20203;-68
2021/11/20 09:03:22;;;;;;;1.13;1.03;;;;;;;8.45;70.34;98600.47;6124647;29;20204;-68
2021/11/20 09:06:43;;;;;;;1.67;0.90;;;;;;;8.64;70.93;98592.38;6124610;29;20231;-68
2021/11/20 09:09:54;;;;;;;1.27;0.97;;;;;;;8.76;70.42;98596.09;6124411;29;20217;-68
2021/11/20 09:13:02;;;;;;;0.87;0.80;;;;;;;8.94;70.54;98597.63;6124553;29;20214;-68
2021/11/20 09:16:13;;;;;;;1.10;1.00;;;;;;;9.04;69.14;98579.50;6123839;29;20251;-68
2021/11/20 09:19:16;;;;;;;1.20;1.10;;;;;;;9.22;68.95;98581.03;6124713;29;20223;-68
2021/11/20 09:22:30;;;;;;;1.33;1.10;;;;;;;9.49;68.72;98584.59;6125588;29;20203;-68
2021/11/20 09:25:39;;;;;;;1.30;1.20;;;;;;;9.50;67.28;98585.47;6124386;29;20210;-68
2021/11/20 09:29:02;;;;;;;1.60;1.27;;;;;;;9.41;67.53;98578.97;6124296;29;20566;-68
2021/11/20 09:32:07;;;;;;;1.50;1.13;;;;;;;9.35;66.92;98582.00;6123342;29;20250;-68
2021/11/20 09:35:09;;;;;;;1.20;1.10;;;;;;;9.34;66.79;98593.47;6124675;29;20623;-68
2021/11/20 09:38:32;;;;;;;1.27;1.03;;;;;;;9.55;67.28;98578.97;6123560;29;20230;-68
2021/11/20 09:42:11;;;;;;;1.20;1.10;;;;;;;9.69;66.09;98580.75;6123944;29;20230;-68
2021/11/20 09:45:25;;;;;;;1.20;1.10;;;;;;;9.78;66.24;98580.16;6123684;29;20207;-68
2021/11/20 09:48:39;;;;;;;1.20;1.10;;;;;;;9.75;65.21;98574.25;6123893;29;20315;-68
2021/11/20 09:51:53;;;;;;;1.60;1.27;;;;;;;9.77;65.08;98570.59;6125040;29;20188;-68
2021/11/20 09:54:55;;;;;;;1.50;1.40;;;;;;;9.79;64.37;98555.50;6123694;29;20203;-68
2021/11/20 09:58:07;;;;;;;1.70;1.50;;;;;;;9.78;64.44;98556.44;6123363;29;20249;-68
2021/11/20 10:01:41;;;;;;;1.50;1.40;;;;;;;9.89;63.67;98548.69;6124494;29;20222;-68
2021/11/20 10:05:04;;;;;;;2.20;1.50;;;;;;;9.88;64.26;98548.81;6123574;29;20213;-68
2021/11/20 10:08:12;;;;;;;1.90;1.63;;;;;;;9.78;63.57;98547.72;6124895;29;20757;-68
2021/11/20 10:11:27;;;;;;;2.30;2.10;;;;;;;9.82;64.48;98544.78;6124587;29;20549;-68
2021/11/20 10:14:37;;;;;;;2.00;1.77;;;;;;;9.75;63.86;98545.25;6124019;29;20226;-70
2021/11/20 10:18:16;;;;;;;2.20;2.00;;;;;;;9.76;63.87;98552.22;6124496;29;20652;-68
2021/11/20 10:21:21;;;;;;;2.20;2.00;;;;;;;9.84;64.35;98539.41;6123566;29;20227;-68
2021/11/20 10:25:01;;;;;;;2.10;1.90;;;;;;;9.86;63.87;98533.09;6124461;29;20196;-68
2021/11/20 10:28:11;;;;;;;3.50;2.30;;;;;;;9.89;63.90;98542.59;6061309;29;20306;-68
2021/11/20 10:31:24;;;;;;;2.43;2.10;;;;;;;9.73;63.77;98526.06;6113238;29;20603;-68
2021/11/20 10:34:34;;;;;;;3.10;1.77;;;;;;;9.80;63.75;98524.72;6123970;29;20205;-68
2021/11/20 10:37:41;;;;;;;3.03;2.13;;;;;;;9.88;64.60;98525.09;6123645;29;20559;-68
2021/11/20 10:41:00;;;;;;;2.50;2.30;;;;;;;9.89;63.88;98524.13;6123673;29;20207;-68
2021/11/20 10:44:39;;;;;;;2.20;1.80;;;;;;;9.94;63.68;98511.50;6122235;29;20200;-68
2021/11/20 10:47:52;;;;;;;2.30;2.00;;;;;;;10.03;63.17;98510.91;6123836;29;20600;-67
2021/11/20 10:51:21;;;;;;;2.60;2.30;;;;;;;9.93;63.03;98525.63;6123606;29;20226;-68
2021/11/20 10:54:47;;;;;;;3.63;2.50;;;;;;;9.62;64.20;98510.91;6120080;29;20200;-68
2021/11/20 10:58:26;;;;;;;2.53;2.10;;;;;;;9.79;64.15;98509.84;6123579;29;20310;-68
2021/11/20 11:01:34;;;;;;;3.33;2.83;;;;;;;9.87;63.41;98504.94;6122916;29;20203;-70
2021/11/20 11:04:52;;;;;;;4.00;2.70;;;;;;;9.94;63.37;98512.34;6122103;29;20196;-68
2021/11/20 11:08:22;;;;;;;3.17;2.80;;;;;;;9.92;63.28;98503.69;6122772;29;20210;-68
2021/11/20 11:11:41;;;;;;;3.20;2.90;;;;;;;9.79;63.87;98505.41;6123072;29;20663;-68
2021/11/20 11:14:56;;;;;;;4.70;3.30;;;;;;;9.76;63.90;98500.38;6122896;29;20667;-68
2021/11/20 11:18:20;;;;;;;4.33;2.97;;;;;;;9.78;63.60;98503.72;6123112;29;20199;-68
2021/11/20 11:21:32;;;;;;;3.00;2.70;;;;;;;9.93;63.48;98502.75;6122524;29;20200;-68
2021/11/20 11:25:08;;;;;;;4.13;3.37;;;;;;;10.00;63.63;98488.22;6123085;29;20180;-68
2021/11/20 11:28:23;;;;;;;3.17;2.87;;;;;;;10.00;63.17;98500.56;6123080;29;20192;-68
2021/11/20 11:31:25;;;;;;;4.33;2.70;;;;;;;10.22;62.82;98492.97;6099150;29;20607;-68
2021/11/20 11:34:36;;;;;;;4.13;3.17;;;;;;;10.17;62.66;98489.78;6121639;29;20206;-68
2021/11/20 11:38:20;;;;;;;3.60;2.83;;;;;;;10.46;62.11;98485.22;6121074;29;20223;-68
2021/11/20 11:41:48;;;;;;;3.13;2.83;;;;;;;10.72;60.61;98484.31;6122410;29;20252;-68
2021/11/20 11:45:33;;;;;;;4.50;3.33;;;;;;;10.95;60.28;98474.81;6122449;29;20560;-68
2021/11/20 11:49:09;;;;;;;3.40;3.10;;;;;;;10.99;59.94;98478.06;6122742;29;20538;-68
2021/11/20 11:52:29;;;;;;;4.20;3.10;;;;;;;11.22;58.58;98468.56;6122138;29;20196;-68
2021/11/20 11:55:31;;;;;;;3.60;2.70;;;;;;;11.47;58.30;98457.94;6099383;29;20187;-68
2021/11/20 11:58:46;;;;;;;3.70;2.97;;;;;;;11.57;58.33;98458.13;6120332;29;20580;-68
2021/11/20 12:02:08;;;;;;;4.63;3.50;;;;;;;11.67;57.96;98445.94;6122401;29;20645;-68
2021/11/20 12:05:35;;;;;;;3.70;3.10;;;;;;;11.63;57.59;98434.72;6105703;29;20228;-68
2021/11/20 12:08:43;;;;;;;4.13;3.63;;;;;;;11.31;57.31;98452.03;6125659;29;20634;-68
2021/11/20 12:11:46;;;;;;;3.30;3.00;;;;;;;11.47;56.99;98455.31;6127263;29;20200;-68
2021/11/20 12:14:49;;;;;;;3.43;3.13;;;;;;;11.35;57.46;98437.69;6126957;29;20580;-68
2021/11/20 12:18:24;;;;;;;3.97;3.30;;;;;;;11.51;58.44;98429.47;6127709;29;20197;-68
2021/11/20 12:21:38;;;;;;;4.77;3.57;;;;;;;11.88;57.43;98423.22;6125277;29;20215;-68
2021/11/20 12:24:43;;;;;;;3.53;3.20;;;;;;;12.18;56.10;98441.28;6127122;29;20546;-68
2021/11/20 12:27:48;;;;;;;4.77;3.70;;;;;;;12.34;55.76;98420.66;6127162;29;20646;-68
2021/11/20 12:31:17;;;;;;;4.77;4.23;;;;;;;12.72;54.87;98406.28;6126166;29;20703;-68
2021/11/20 12:34:25;;;;;;;4.27;3.63;;;;;;;12.92;53.66;98409.06;6126888;29;20210;-68
2021/11/20 12:37:55;;;;;;;4.33;3.90;;;;;;;13.27;51.95;98397.53;6126665;29;20551;-68
2021/11/20 12:41:10;;;;;;;4.07;3.60;;;;;;;13.95;50.38;98386.63;6125053;29;20229;-68
2021/11/20 12:44:30;;;;;;;4.70;3.37;;;;;;;14.98;48.60;98373.44;6126273;29;20567;-69
2021/11/20 12:47:58;;;;;;;4.40;3.40;;;;;;;16.14;44.46;98372.72;6126982;29;20242;-68
2021/11/20 12:51:17;;;;;;;3.70;3.30;;;;;;;17.21;41.69;98362.63;6124247;29;20690;-68
2021/11/20 12:54:44;;;;;;;4.50;3.90;;;;;;;18.06;39.86;98356.91;6125294;29;20198;-68
2021/11/20 12:57:51;;;;;;;4.47;3.97;;;;;;;17.18;41.21;98365.59;6126182;29;20744;-68
2021/11/20 13:00:55;;;;;;;6.57;4.10;;;;;;;15.00;45.53;98348.41;6126181;29;20646;-68
2021/11/20 13:04:40;;;;;;;4.37;3.83;;;;;;;12.66;51.64;98357.28;6125004;29;20782;-68
2021/11/20 13:07:55;;;;;;;5.10;4.60;;;;;;;11.51;55.33;98351.03;6115936;29;20230;-68
2021/11/20 13:11:04;;;;;;;5.23;4.73;;;;;;;10.82;57.60;98339.31;6125630;29;20202;-69
2021/11/20 13:14:06;;;;;;;5.00;4.50;;;;;;;10.41;58.55;98343.97;6124187;29;20212;-68
2021/11/20 13:17:17;;;;;;;5.03;4.13;;;;;;;10.32;59.11;98338.38;6124658;29;20205;-69
2021/11/20 13:20:51;;;;;;;5.37;4.30;;;;;;;10.14;59.68;98330.88;6124848;29;20207;-68
2021/11/20 13:24:07;;;;;;;5.83;4.23;;;;;;;9.99;59.91;98323.03;6108974;29;20220;-68
2021/11/20 13:27:11;;;;;;;4.00;3.70;;;;;;;9.95;59.96;98323.34;6125409;29;20263;-68
2021/11/20 13:30:16;;;;;;;4.90;4.40;;;;;;;9.76;61.01;98315.00;6124989;29;20251;-70
2021/11/20 13:33:19;;;;;;;6.27;4.90;;;;;;;9.62;61.29;98313.28;6124476;29;20228;-68
2021/11/20 13:36:21;;;;;;;5.80;4.73;;;;;;;9.40;62.38;98308.56;6123788;29;20564;-69
2021/11/20 13:39:24;;;;;;;6.23;5.10;;;;;;;9.26;61.89;98316.53;6125512;29;20511;-68
2021/11/20 13:42:36;;;;;;;8.27;5.73;;;;;;;9.02;62.18;98303.16;6124561;29;20713;-68
2021/11/20 13:45:39;;;;;;;7.97;5.67;;;;;;;8.88;63.15;98317.19;6125571;29;20232;-68
2021/11/20 13:48:41;;;;;;;5.50;4.60;;;;;;;8.80;63.13;98308.09;6125305;29;20203;-68
2021/11/20 13:51:44;;;;;;;6.87;5.60;;;;;;;8.71;63.38;98306.03;6122895;29;20206;-68
2021/11/20 13:54:57;;;;;;;5.50;4.97;;;;;;;8.69;63.23;98303.50;6124038;29;20593;-68
2021/11/20 13:57:59;;;;;;;5.23;4.40;;;;;;;8.65;63.97;98306.44;6123319;29;20210;-68
2021/11/20 14:01:13;;;;;;;5.40;4.90;;;;;;;8.58;64.33;98302.50;6124516;29;20212;-68
2021/11/20 14:04:18;;;;;;;4.20;3.67;;;;;;;8.50;64.02;98298.53;6123175;29;20206;-68
2021/11/20 14:07:23;;;;;;;4.20;3.23;;;;;;;8.39;64.63;98300.97;6125256;29;20232;-68
2021/11/20 14:10:36;;;;;;;3.50;3.20;;;;;;;8.28;65.21;98292.91;6124523;29;20249;-68
2021/11/20 14:13:38;;;;;;;4.47;3.40;;;;;;;8.13;65.75;98297.28;6123453;29;20191;-68
2021/11/20 14:16:41;;;;;;;4.07;3.47;;;;;;;8.02;66.07;98285.72;6121936;29;20190;-68
2021/11/20 14:19:44;;;;;;;4.93;3.83;;;;;;;7.89;66.54;98280.34;6122387;29;20214;-68
2021/11/20 14:22:47;;;;;;;5.90;4.70;;;;;;;7.81;66.96;98279.13;6121740;29;20217;-68
2021/11/20 14:25:53;;;;;;;5.10;4.00;;;;;;;7.68;67.42;98279.88;6122820;29;20620;-68
2021/11/20 14:29:01;;;;;;;4.83;4.07;;;;;;;7.63;67.60;98276.66;6123577;29;20213;-69
2021/11/20 14:32:07;;;;;;;8.13;5.00;;;;;;;7.53;67.84;98280.75;6122274;29;20273;-69
2021/11/20 14:35:10;;;;;;;6.97;5.30;;;;;;;7.48;67.91;98279.34;6123642;29;20203;-69
2021/11/20 14:38:12;;;;;;;5.70;4.47;;;;;;;7.40;68.28;98274.53;6123822;29;20198;-69
2021/11/20 14:41:14;;;;;;;7.37;5.20;;;;;;;7.31;68.70;98275.91;6122877;29;20237;-69
2021/11/20 14:44:22;;;;;;;5.40;4.73;;;;;;;7.26;68.89;98266.63;6121390;29;20587;-68
2021/11/20 14:47:24;;;;;;;5.33;4.20;;;;;;;7.17;68.96;98273.25;6123553;29;20212;-68
2021/11/20 14:50:35;;;;;;;7.90;5.93;;;;;;;7.11;69.18;98276.19;6123636;29;20201;-68
2021/11/20 14:53:38;;;;;;;7.27;6.20;;;;;;;7.07;69.15;98268.59;6123758;29;20228;-68
2021/11/20 14:56:41;;;;;;;9.67;7.00;;;;;;;7.02;69.06;98271.47;6123193;29;20200;-68
2021/11/20 14:59:46;;;;;;;6.73;5.27;;;;;;;6.89;69.49;98263.44;6123827;29;20205;-68
2021/11/20 15:02:48;;;;;;;6.90;5.77;;;;;;;6.78;69.62;98265.84;6122539;29;20330;-68
2021/11/20 15:05:50;;;;;;;6.50;5.63;;;;;;;6.68;70.35;98267.28;6123630;29;20689;-68
2021/11/20 15:08:54;;;;;;;8.20;6.07;;;;;;;6.55;70.61;98261.00;6121237;29;20325;-68
2021/11/20 15:11:56;;;;;;;8.70;7.00;;;;;;;6.50;70.97;98252.53;6121162;29;20198;-68